sensor_id;sensor_type;location;lat;lon;timestamp;P1;durP1;ratioP1;P2;durP2;ratioP2
61460;SDS011;47325;50.506;4.472;2022-12-11T00:01:11;14.50;;;7.60;;
61460;SDS011;47325;50.506;4.472;2022-12-11T00:06:54;17.30;;;7.50;;
61460;SDS011;47325;50.506;4.472;2022-12-11T00:12:37;16.10;;;8.30;;
61460;SDS011;47325;50.506;4.472;2022-12-11T00:18:20;14.30;;;7.50;;
61460;SDS011;47325;50.506;4.472;2022-12-11T00:24:03;15.30;;;7.60;;
61460;SDS011;47325;50.506;4.472;2022-12-11T00:29:46;14.70;;;7.60;;
61460;SDS011;47325;50.506;4.472;2022-12-11T00:35:29;16.10;;;7.90;;
61460;SDS011;47325;50.506;4.472;2022-12-11T00:41:12;15.40;;;7.50;;
61460;SDS011;47325;50.506;4.472;2022-12-11T00:46:55;16.00;;;7.80;;
61460;SDS011;47325;50.506;4.472;2022-12-11T00:52:38;16.20;;;8.00;;
61460;SDS011;47325;50.506;4.472;2022-12-11T00:58:21;15.20;;;7.40;;
61460;SDS011;47325;50.506;4.472;2022-12-11T01:04:05;14.60;;;7.70;;
61460;SDS011;47325;50.506;4.472;2022-12-11T01:09:47;14.60;;;7.40;;
61460;SDS011;47325;50.506;4.472;2022-12-11T01:15:32;16.70;;;8.50;;
61460;SDS011;47325;50.506;4.472;2022-12-11T01:21:22;16.30;;;7.90;;
61460;SDS011;47325;50.506;4.472;2022-12-11T01:27:05;14.70;;;7.90;;
61460;SDS011;47325;50.506;4.472;2022-12-11T01:32:48;16.50;;;7.80;;
61460;SDS011;47325;50.506;4.472;2022-12-11T01:38:31;18.20;;;7.70;;
61460;SDS011;47325;50.506;4.472;2022-12-11T01:50:08;17.30;;;8.20;;
61460;SDS011;47325;50.506;4.472;2022-12-11T01:55:52;17.10;;;7.70;;
61460;SDS011;47325;50.506;4.472;2022-12-11T02:01:36;15.90;;;7.60;;
61460;SDS011;47325;50.506;4.472;2022-12-11T02:07:20;18.90;;;7.70;;
61460;SDS011;47325;50.506;4.472;2022-12-11T02:13:06;15.40;;;7.40;;
61460;SDS011;47325;50.506;4.472;2022-12-11T02:18:51;15.90;;;8.00;;
61460;SDS011;47325;50.506;4.472;2022-12-11T02:24:41;15.30;;;7.70;;
61460;SDS011;47325;50.506;4.472;2022-12-11T02:30:28;17.00;;;8.50;;
61460;SDS011;47325;50.506;4.472;2022-12-11T02:36:11;17.60;;;7.80;;
61460;SDS011;47325;50.506;4.472;2022-12-11T02:41:57;15.40;;;7.30;;
61460;SDS011;47325;50.506;4.472;2022-12-11T02:47:40;14.90;;;7.70;;
61460;SDS011;47325;50.506;4.472;2022-12-11T02:53:25;15.40;;;7.20;;
61460;SDS011;47325;50.506;4.472;2022-12-11T02:59:10;16.70;;;7.80;;
61460;SDS011;47325;50.506;4.472;2022-12-11T03:04:55;16.20;;;7.90;;
61460;SDS011;47325;50.506;4.472;2022-12-11T03:10:38;16.80;;;7.80;;
61460;SDS011;47325;50.506;4.472;2022-12-11T03:16:23;19.00;;;8.40;;
61460;SDS011;47325;50.506;4.472;2022-12-11T03:22:11;16.80;;;8.50;;
61460;SDS011;47325;50.506;4.472;2022-12-11T03:27:59;16.70;;;7.80;;
61460;SDS011;47325;50.506;4.472;2022-12-11T03:33:44;17.30;;;8.10;;
61460;SDS011;47325;50.506;4.472;2022-12-11T03:39:29;17.90;;;8.80;;
61460;SDS011;47325;50.506;4.472;2022-12-11T03:45:14;17.10;;;8.20;;
61460;SDS011;47325;50.506;4.472;2022-12-11T03:50:59;16.50;;;7.80;;
61460;SDS011;47325;50.506;4.472;2022-12-11T03:56:43;18.70;;;8.40;;
61460;SDS011;47325;50.506;4.472;2022-12-11T04:02:26;16.30;;;7.80;;
61460;SDS011;47325;50.506;4.472;2022-12-11T04:08:09;16.80;;;8.00;;
61460;SDS011;47325;50.506;4.472;2022-12-11T04:13:52;17.80;;;8.50;;
61460;SDS011;47325;50.506;4.472;2022-12-11T04:19:36;16.70;;;8.30;;
61460;SDS011;47325;50.506;4.472;2022-12-11T04:25:19;18.40;;;8.60;;
61460;SDS011;47325;50.506;4.472;2022-12-11T04:31:03;20.20;;;8.40;;
61460;SDS011;47325;50.506;4.472;2022-12-11T04:36:46;19.00;;;8.90;;
61460;SDS011;47325;50.506;4.472;2022-12-11T04:42:29;17.70;;;8.40;;
61460;SDS011;47325;50.506;4.472;2022-12-11T04:48:12;18.20;;;8.60;;
61460;SDS011;47325;50.506;4.472;2022-12-11T04:53:56;17.60;;;8.60;;
61460;SDS011;47325;50.506;4.472;2022-12-11T04:59:39;17.90;;;8.80;;
61460;SDS011;47325;50.506;4.472;2022-12-11T05:05:22;17.90;;;8.50;;
61460;SDS011;47325;50.506;4.472;2022-12-11T05:11:07;17.60;;;8.70;;
61460;SDS011;47325;50.506;4.472;2022-12-11T05:16:50;17.90;;;8.60;;
61460;SDS011;47325;50.506;4.472;2022-12-11T05:22:34;18.60;;;8.70;;
61460;SDS011;47325;50.506;4.472;2022-12-11T05:28:17;18.20;;;8.40;;
61460;SDS011;47325;50.506;4.472;2022-12-11T05:34:00;19.20;;;8.80;;
61460;SDS011;47325;50.506;4.472;2022-12-11T05:39:42;19.80;;;8.40;;
61460;SDS011;47325;50.506;4.472;2022-12-11T05:45:25;19.20;;;8.70;;
61460;SDS011;47325;50.506;4.472;2022-12-11T05:51:09;18.60;;;8.50;;
61460;SDS011;47325;50.506;4.472;2022-12-11T05:56:52;18.00;;;9.00;;
61460;SDS011;47325;50.506;4.472;2022-12-11T06:02:37;19.10;;;9.20;;
61460;SDS011;47325;50.506;4.472;2022-12-11T06:08:21;18.80;;;8.90;;
61460;SDS011;47325;50.506;4.472;2022-12-11T06:14:04;17.90;;;8.50;;
61460;SDS011;47325;50.506;4.472;2022-12-11T06:19:47;19.20;;;8.70;;
61460;SDS011;47325;50.506;4.472;2022-12-11T06:25:30;19.30;;;8.80;;
61460;SDS011;47325;50.506;4.472;2022-12-11T06:31:12;18.90;;;8.50;;
61460;SDS011;47325;50.506;4.472;2022-12-11T06:36:57;18.90;;;9.30;;
61460;SDS011;47325;50.506;4.472;2022-12-11T06:42:40;19.60;;;8.40;;
61460;SDS011;47325;50.506;4.472;2022-12-11T06:48:23;19.80;;;8.30;;
61460;SDS011;47325;50.506;4.472;2022-12-11T06:54:06;20.00;;;8.60;;
61460;SDS011;47325;50.506;4.472;2022-12-11T06:59:49;19.50;;;8.60;;
61460;SDS011;47325;50.506;4.472;2022-12-11T07:05:33;19.10;;;8.60;;
61460;SDS011;47325;50.506;4.472;2022-12-11T07:11:16;20.70;;;8.90;;
61460;SDS011;47325;50.506;4.472;2022-12-11T07:17:00;19.70;;;9.20;;
61460;SDS011;47325;50.506;4.472;2022-12-11T07:22:43;19.10;;;9.00;;
61460;SDS011;47325;50.506;4.472;2022-12-11T07:28:30;20.20;;;9.20;;
61460;SDS011;47325;50.506;4.472;2022-12-11T07:34:13;23.00;;;10.20;;
61460;SDS011;47325;50.506;4.472;2022-12-11T07:39:56;22.00;;;9.30;;
61460;SDS011;47325;50.506;4.472;2022-12-11T07:45:39;19.50;;;9.00;;
61460;SDS011;47325;50.506;4.472;2022-12-11T07:51:24;19.60;;;9.40;;
61460;SDS011;47325;50.506;4.472;2022-12-11T07:57:07;22.40;;;9.60;;
61460;SDS011;47325;50.506;4.472;2022-12-11T08:02:55;20.70;;;9.50;;
61460;SDS011;47325;50.506;4.472;2022-12-11T08:08:38;20.00;;;9.60;;
61460;SDS011;47325;50.506;4.472;2022-12-11T08:14:22;19.00;;;9.50;;
61460;SDS011;47325;50.506;4.472;2022-12-11T08:20:05;19.50;;;8.80;;
61460;SDS011;47325;50.506;4.472;2022-12-11T08:25:48;18.90;;;9.10;;
61460;SDS011;47325;50.506;4.472;2022-12-11T08:31:33;18.90;;;9.30;;
61460;SDS011;47325;50.506;4.472;2022-12-11T08:37:16;19.30;;;8.90;;
61460;SDS011;47325;50.506;4.472;2022-12-11T08:42:59;18.40;;;8.90;;
61460;SDS011;47325;50.506;4.472;2022-12-11T08:48:42;16.80;;;8.50;;
61460;SDS011;47325;50.506;4.472;2022-12-11T08:54:25;18.60;;;8.90;;
61460;SDS011;47325;50.506;4.472;2022-12-11T09:00:10;18.90;;;9.30;;
61460;SDS011;47325;50.506;4.472;2022-12-11T09:05:54;19.10;;;8.30;;
61460;SDS011;47325;50.506;4.472;2022-12-11T09:11:37;18.80;;;8.60;;
61460;SDS011;47325;50.506;4.472;2022-12-11T09:17:20;19.60;;;8.80;;
61460;SDS011;47325;50.506;4.472;2022-12-11T09:23:03;16.60;;;8.50;;
61460;SDS011;47325;50.506;4.472;2022-12-11T09:28:47;18.40;;;8.50;;
61460;SDS011;47325;50.506;4.472;2022-12-11T09:34:31;18.40;;;8.80;;
61460;SDS011;47325;50.506;4.472;2022-12-11T09:40:15;18.30;;;8.70;;
61460;SDS011;47325;50.506;4.472;2022-12-11T09:45:58;18.30;;;8.70;;
61460;SDS011;47325;50.506;4.472;2022-12-11T09:51:43;17.60;;;8.50;;
61460;SDS011;47325;50.506;4.472;2022-12-11T09:57:38;17.60;;;8.50;;
61460;SDS011;47325;50.506;4.472;2022-12-11T10:03:27;19.90;;;9.20;;
61460;SDS011;47325;50.506;4.472;2022-12-11T10:09:15;16.80;;;8.20;;
61460;SDS011;47325;50.506;4.472;2022-12-11T10:15:05;16.40;;;8.10;;
61460;SDS011;47325;50.506;4.472;2022-12-11T10:20:53;16.40;;;8.50;;
61460;SDS011;47325;50.506;4.472;2022-12-11T10:26:36;16.90;;;8.20;;
61460;SDS011;47325;50.506;4.472;2022-12-11T10:32:23;18.80;;;9.10;;
61460;SDS011;47325;50.506;4.472;2022-12-11T10:38:14;17.30;;;8.80;;
61460;SDS011;47325;50.506;4.472;2022-12-11T10:43:57;17.10;;;8.60;;
61460;SDS011;47325;50.506;4.472;2022-12-11T10:49:42;18.20;;;8.70;;
61460;SDS011;47325;50.506;4.472;2022-12-11T10:55:27;18.10;;;8.60;;
61460;SDS011;47325;50.506;4.472;2022-12-11T11:01:13;20.40;;;8.40;;
61460;SDS011;47325;50.506;4.472;2022-12-11T11:07:07;18.90;;;8.60;;
61460;SDS011;47325;50.506;4.472;2022-12-11T11:12:54;16.20;;;8.00;;
61460;SDS011;47325;50.506;4.472;2022-12-11T11:18:41;17.00;;;8.00;;
61460;SDS011;47325;50.506;4.472;2022-12-11T11:24:31;18.40;;;8.20;;
61460;SDS011;47325;50.506;4.472;2022-12-11T11:30:20;23.50;;;8.40;;
61460;SDS011;47325;50.506;4.472;2022-12-11T11:36:04;21.00;;;8.70;;
61460;SDS011;47325;50.506;4.472;2022-12-11T11:41:50;19.30;;;8.30;;
61460;SDS011;47325;50.506;4.472;2022-12-11T11:47:37;17.40;;;8.20;;
61460;SDS011;47325;50.506;4.472;2022-12-11T11:53:23;20.80;;;8.00;;
61460;SDS011;47325;50.506;4.472;2022-12-11T11:59:10;19.80;;;8.10;;
61460;SDS011;47325;50.506;4.472;2022-12-11T12:04:56;20.60;;;8.10;;
61460;SDS011;47325;50.506;4.472;2022-12-11T12:10:40;20.50;;;8.50;;
61460;SDS011;47325;50.506;4.472;2022-12-11T12:16:28;20.10;;;8.10;;
61460;SDS011;47325;50.506;4.472;2022-12-11T12:22:39;19.00;;;8.00;;
61460;SDS011;47325;50.506;4.472;2022-12-11T12:28:27;17.60;;;8.50;;
61460;SDS011;47325;50.506;4.472;2022-12-11T12:34:15;17.70;;;8.10;;
61460;SDS011;47325;50.506;4.472;2022-12-11T12:40:00;18.00;;;8.10;;
61460;SDS011;47325;50.506;4.472;2022-12-11T12:45:46;17.00;;;8.40;;
61460;SDS011;47325;50.506;4.472;2022-12-11T12:51:31;18.40;;;8.30;;
61460;SDS011;47325;50.506;4.472;2022-12-11T12:57:14;16.60;;;7.40;;
61460;SDS011;47325;50.506;4.472;2022-12-11T13:02:58;17.70;;;8.20;;
61460;SDS011;47325;50.506;4.472;2022-12-11T13:08:45;19.80;;;8.30;;
61460;SDS011;47325;50.506;4.472;2022-12-11T13:14:30;17.70;;;8.10;;
61460;SDS011;47325;50.506;4.472;2022-12-11T13:20:18;16.90;;;7.90;;
61460;SDS011;47325;50.506;4.472;2022-12-11T13:26:02;17.50;;;7.70;;
61460;SDS011;47325;50.506;4.472;2022-12-11T13:31:45;17.10;;;8.10;;
61460;SDS011;47325;50.506;4.472;2022-12-11T13:37:34;16.30;;;7.70;;
61460;SDS011;47325;50.506;4.472;2022-12-11T13:43:19;16.10;;;8.00;;
61460;SDS011;47325;50.506;4.472;2022-12-11T13:49:04;15.50;;;7.70;;
61460;SDS011;47325;50.506;4.472;2022-12-11T13:54:50;14.60;;;7.20;;
61460;SDS011;47325;50.506;4.472;2022-12-11T14:00:33;15.90;;;7.50;;
61460;SDS011;47325;50.506;4.472;2022-12-11T14:06:17;17.60;;;8.10;;
61460;SDS011;47325;50.506;4.472;2022-12-11T14:12:00;15.40;;;7.60;;
61460;SDS011;47325;50.506;4.472;2022-12-11T14:17:44;16.70;;;8.00;;
61460;SDS011;47325;50.506;4.472;2022-12-11T14:23:33;17.50;;;7.90;;
61460;SDS011;47325;50.506;4.472;2022-12-11T14:29:25;17.30;;;7.90;;
61460;SDS011;47325;50.506;4.472;2022-12-11T14:35:11;17.60;;;7.90;;
61460;SDS011;47325;50.506;4.472;2022-12-11T14:40:57;12.70;;;7.10;;
61460;SDS011;47325;50.506;4.472;2022-12-11T14:46:42;15.00;;;8.10;;
61460;SDS011;47325;50.506;4.472;2022-12-11T14:52:28;15.40;;;7.80;;
61460;SDS011;47325;50.506;4.472;2022-12-11T14:58:16;16.70;;;7.80;;
61460;SDS011;47325;50.506;4.472;2022-12-11T15:04:05;15.50;;;8.10;;
61460;SDS011;47325;50.506;4.472;2022-12-11T15:09:49;16.60;;;7.50;;
61460;SDS011;47325;50.506;4.472;2022-12-11T15:15:36;15.10;;;7.80;;
61460;SDS011;47325;50.506;4.472;2022-12-11T15:21:26;13.80;;;7.90;;
61460;SDS011;47325;50.506;4.472;2022-12-11T15:27:12;14.10;;;7.20;;
61460;SDS011;47325;50.506;4.472;2022-12-11T15:38:52;14.60;;;7.70;;
61460;SDS011;47325;50.506;4.472;2022-12-11T15:44:35;13.90;;;7.20;;
61460;SDS011;47325;50.506;4.472;2022-12-11T15:50:18;13.80;;;7.50;;
61460;SDS011;47325;50.506;4.472;2022-12-11T15:56:01;15.00;;;7.60;;
61460;SDS011;47325;50.506;4.472;2022-12-11T16:01:44;11.10;;;6.90;;
61460;SDS011;47325;50.506;4.472;2022-12-11T16:07:27;14.30;;;7.30;;
61460;SDS011;47325;50.506;4.472;2022-12-11T16:13:11;13.70;;;7.40;;
61460;SDS011;47325;50.506;4.472;2022-12-11T16:18:55;14.80;;;7.80;;
61460;SDS011;47325;50.506;4.472;2022-12-11T16:24:39;13.90;;;7.70;;
61460;SDS011;47325;50.506;4.472;2022-12-11T16:30:23;14.30;;;7.70;;
61460;SDS011;47325;50.506;4.472;2022-12-11T16:36:14;14.50;;;7.90;;
61460;SDS011;47325;50.506;4.472;2022-12-11T16:41:58;15.20;;;7.90;;
61460;SDS011;47325;50.506;4.472;2022-12-11T16:47:41;16.10;;;8.60;;
61460;SDS011;47325;50.506;4.472;2022-12-11T16:53:25;16.50;;;8.40;;
61460;SDS011;47325;50.506;4.472;2022-12-11T16:59:09;17.50;;;9.20;;
61460;SDS011;47325;50.506;4.472;2022-12-11T17:04:52;16.70;;;8.40;;
61460;SDS011;47325;50.506;4.472;2022-12-11T17:10:37;17.20;;;8.60;;
61460;SDS011;47325;50.506;4.472;2022-12-11T17:16:20;15.90;;;8.80;;
61460;SDS011;47325;50.506;4.472;2022-12-11T17:22:03;16.30;;;8.80;;
61460;SDS011;47325;50.506;4.472;2022-12-11T17:27:46;16.00;;;9.10;;
61460;SDS011;47325;50.506;4.472;2022-12-11T17:33:29;18.80;;;9.70;;
61460;SDS011;47325;50.506;4.472;2022-12-11T17:39:12;21.20;;;10.20;;
61460;SDS011;47325;50.506;4.472;2022-12-11T17:44:55;19.40;;;10.70;;
61460;SDS011;47325;50.506;4.472;2022-12-11T17:50:38;21.00;;;10.60;;
61460;SDS011;47325;50.506;4.472;2022-12-11T17:56:21;19.50;;;10.60;;
61460;SDS011;47325;50.506;4.472;2022-12-11T18:02:04;21.60;;;11.50;;
61460;SDS011;47325;50.506;4.472;2022-12-11T18:07:48;22.50;;;12.10;;
61460;SDS011;47325;50.506;4.472;2022-12-11T18:13:39;21.50;;;12.20;;
61460;SDS011;47325;50.506;4.472;2022-12-11T18:19:22;22.40;;;12.70;;
61460;SDS011;47325;50.506;4.472;2022-12-11T18:25:05;23.60;;;13.30;;
61460;SDS011;47325;50.506;4.472;2022-12-11T18:30:57;25.00;;;14.40;;
61460;SDS011;47325;50.506;4.472;2022-12-11T18:36:40;23.70;;;13.10;;
61460;SDS011;47325;50.506;4.472;2022-12-11T18:42:23;23.00;;;12.90;;
61460;SDS011;47325;50.506;4.472;2022-12-11T18:48:15;24.70;;;13.30;;
61460;SDS011;47325;50.506;4.472;2022-12-11T18:53:58;22.70;;;12.80;;
61460;SDS011;47325;50.506;4.472;2022-12-11T18:59:42;24.10;;;12.90;;
61460;SDS011;47325;50.506;4.472;2022-12-11T19:05:24;23.20;;;13.10;;
61460;SDS011;47325;50.506;4.472;2022-12-11T19:11:12;21.60;;;12.00;;
61460;SDS011;47325;50.506;4.472;2022-12-11T19:16:55;20.90;;;11.30;;
61460;SDS011;47325;50.506;4.472;2022-12-11T19:22:38;22.80;;;12.20;;
61460;SDS011;47325;50.506;4.472;2022-12-11T19:28:21;20.30;;;11.20;;
61460;SDS011;47325;50.506;4.472;2022-12-11T19:34:04;22.00;;;11.70;;
61460;SDS011;47325;50.506;4.472;2022-12-11T19:39:47;20.90;;;11.40;;
61460;SDS011;47325;50.506;4.472;2022-12-11T19:45:30;21.40;;;11.30;;
61460;SDS011;47325;50.506;4.472;2022-12-11T19:51:14;21.10;;;10.90;;
61460;SDS011;47325;50.506;4.472;2022-12-11T19:56:57;20.30;;;10.80;;
61460;SDS011;47325;50.506;4.472;2022-12-11T20:02:40;19.60;;;10.70;;
61460;SDS011;47325;50.506;4.472;2022-12-11T20:08:23;20.50;;;10.60;;
61460;SDS011;47325;50.506;4.472;2022-12-11T20:14:25;18.70;;;10.30;;
61460;SDS011;47325;50.506;4.472;2022-12-11T20:20:09;20.80;;;11.00;;
61460;SDS011;47325;50.506;4.472;2022-12-11T20:25:52;21.00;;;10.30;;
61460;SDS011;47325;50.506;4.472;2022-12-11T20:31:41;19.80;;;10.30;;
61460;SDS011;47325;50.506;4.472;2022-12-11T20:37:24;20.70;;;10.20;;
61460;SDS011;47325;50.506;4.472;2022-12-11T20:43:07;19.70;;;10.30;;
61460;SDS011;47325;50.506;4.472;2022-12-11T20:48:51;20.90;;;10.10;;
61460;SDS011;47325;50.506;4.472;2022-12-11T20:54:34;18.40;;;9.90;;
61460;SDS011;47325;50.506;4.472;2022-12-11T21:00:17;18.90;;;9.80;;
61460;SDS011;47325;50.506;4.472;2022-12-11T21:06:00;19.10;;;9.70;;
61460;SDS011;47325;50.506;4.472;2022-12-11T21:11:43;17.50;;;9.20;;
61460;SDS011;47325;50.506;4.472;2022-12-11T21:17:27;16.40;;;8.50;;
61460;SDS011;47325;50.506;4.472;2022-12-11T21:23:11;18.00;;;9.60;;
61460;SDS011;47325;50.506;4.472;2022-12-11T21:28:55;17.50;;;9.10;;
61460;SDS011;47325;50.506;4.472;2022-12-11T21:34:38;17.90;;;9.30;;
61460;SDS011;47325;50.506;4.472;2022-12-11T21:40:21;16.40;;;8.90;;
61460;SDS011;47325;50.506;4.472;2022-12-11T21:46:05;15.20;;;8.50;;
61460;SDS011;47325;50.506;4.472;2022-12-11T21:51:52;16.40;;;9.10;;
61460;SDS011;47325;50.506;4.472;2022-12-11T21:57:36;15.50;;;8.30;;
61460;SDS011;47325;50.506;4.472;2022-12-11T22:03:20;16.20;;;9.00;;
61460;SDS011;47325;50.506;4.472;2022-12-11T22:09:04;17.40;;;8.80;;
61460;SDS011;47325;50.506;4.472;2022-12-11T22:14:47;15.80;;;8.50;;
61460;SDS011;47325;50.506;4.472;2022-12-11T22:20:32;15.60;;;9.00;;
61460;SDS011;47325;50.506;4.472;2022-12-11T22:26:16;14.30;;;8.00;;
61460;SDS011;47325;50.506;4.472;2022-12-11T22:32:01;18.90;;;8.90;;
61460;SDS011;47325;50.506;4.472;2022-12-11T22:37:45;15.90;;;8.50;;
61460;SDS011;47325;50.506;4.472;2022-12-11T22:43:28;15.80;;;8.40;;
61460;SDS011;47325;50.506;4.472;2022-12-11T22:49:11;17.60;;;9.00;;
61460;SDS011;47325;50.506;4.472;2022-12-11T22:54:54;16.50;;;8.80;;
61460;SDS011;47325;50.506;4.472;2022-12-11T23:00:37;15.40;;;8.30;;
61460;SDS011;47325;50.506;4.472;2022-12-11T23:06:22;16.20;;;8.20;;
61460;SDS011;47325;50.506;4.472;2022-12-11T23:12:05;17.50;;;8.60;;
61460;SDS011;47325;50.506;4.472;2022-12-11T23:17:48;15.30;;;8.10;;
61460;SDS011;47325;50.506;4.472;2022-12-11T23:23:31;14.10;;;8.20;;
61460;SDS011;47325;50.506;4.472;2022-12-11T23:29:14;16.50;;;8.50;;
61460;SDS011;47325;50.506;4.472;2022-12-11T23:34:58;15.50;;;8.50;;
61460;SDS011;47325;50.506;4.472;2022-12-11T23:40:41;18.20;;;9.40;;
61460;SDS011;47325;50.506;4.472;2022-12-11T23:46:24;15.60;;;8.90;;
61460;SDS011;47325;50.506;4.472;2022-12-11T23:52:08;18.50;;;9.60;;
61460;SDS011;47325;50.506;4.472;2022-12-11T23:57:50;16.10;;;8.80;;
